sensor_id;sensor_type;location;lat;lon;timestamp;pressure;altitude;pressure_sealevel;temperature
67758;BMP180;54562;47.620;18.786;2023-01-16T00:02:38;97774.60;;;4.40
67758;BMP180;54562;47.620;18.786;2023-01-16T00:05:47;97777.20;;;4.40
67758;BMP180;54562;47.620;18.786;2023-01-16T00:08:56;97780.60;;;4.40
67758;BMP180;54562;47.620;18.786;2023-01-16T00:12:04;97781.60;;;4.40
67758;BMP180;54562;47.620;18.786;2023-01-16T00:15:13;97774.80;;;4.40
67758;BMP180;54562;47.620;18.786;2023-01-16T00:18:21;97761.20;;;4.40
67758;BMP180;54562;47.620;18.786;2023-01-16T00:21:29;97753.60;;;4.40
67758;BMP180;54562;47.620;18.786;2023-01-16T00:24:38;97770.20;;;4.40
67758;BMP180;54562;47.620;18.786;2023-01-16T00:27:46;97768.20;;;4.44
67758;BMP180;54562;47.620;18.786;2023-01-16T00:30:55;97757.20;;;4.48
67758;BMP180;54562;47.620;18.786;2023-01-16T00:34:03;97760.80;;;4.50
67758;BMP180;54562;47.620;18.786;2023-01-16T00:37:11;97759.60;;;4.50
67758;BMP180;54562;47.620;18.786;2023-01-16T00:40:20;97758.60;;;4.50
67758;BMP180;54562;47.620;18.786;2023-01-16T00:43:28;97752.40;;;4.50
67758;BMP180;54562;47.620;18.786;2023-01-16T00:46:37;97758.00;;;4.50
67758;BMP180;54562;47.620;18.786;2023-01-16T00:49:45;97763.00;;;4.50
67758;BMP180;54562;47.620;18.786;2023-01-16T00:52:53;97760.00;;;4.50
67758;BMP180;54562;47.620;18.786;2023-01-16T00:56:01;97762.60;;;4.50
67758;BMP180;54562;47.620;18.786;2023-01-16T00:59:10;97770.00;;;4.50
67758;BMP180;54562;47.620;18.786;2023-01-16T01:02:44;97774.00;;;4.50
67758;BMP180;54562;47.620;18.786;2023-01-16T01:07:31;97762.00;;;4.50
67758;BMP180;54562;47.620;18.786;2023-01-16T01:10:41;97755.20;;;4.50
67758;BMP180;54562;47.620;18.786;2023-01-16T01:13:49;97757.40;;;4.50
67758;BMP180;54562;47.620;18.786;2023-01-16T01:16:57;97751.00;;;4.50
67758;BMP180;54562;47.620;18.786;2023-01-16T01:20:08;97751.20;;;4.50
67758;BMP180;54562;47.620;18.786;2023-01-16T01:23:16;97751.60;;;4.50
67758;BMP180;54562;47.620;18.786;2023-01-16T01:26:24;97749.60;;;4.50
67758;BMP180;54562;47.620;18.786;2023-01-16T01:29:32;97740.20;;;4.50
67758;BMP180;54562;47.620;18.786;2023-01-16T01:32:40;97738.60;;;4.50
67758;BMP180;54562;47.620;18.786;2023-01-16T01:35:48;97724.80;;;4.50
67758;BMP180;54562;47.620;18.786;2023-01-16T01:38:56;97717.20;;;4.52
67758;BMP180;54562;47.620;18.786;2023-01-16T01:42:08;97720.80;;;4.50
67758;BMP180;54562;47.620;18.786;2023-01-16T01:45:34;97729.20;;;4.50
67758;BMP180;54562;47.620;18.786;2023-01-16T01:48:44;97733.00;;;4.50
67758;BMP180;54562;47.620;18.786;2023-01-16T01:51:57;97741.80;;;4.50
67758;BMP180;54562;47.620;18.786;2023-01-16T01:55:09;97734.20;;;4.50
67758;BMP180;54562;47.620;18.786;2023-01-16T01:58:24;97742.00;;;4.50
67758;BMP180;54562;47.620;18.786;2023-01-16T02:01:34;97731.80;;;4.44
67758;BMP180;54562;47.620;18.786;2023-01-16T02:04:46;97737.40;;;4.50
67758;BMP180;54562;47.620;18.786;2023-01-16T02:07:57;97730.80;;;4.40
67758;BMP180;54562;47.620;18.786;2023-01-16T02:11:10;97721.40;;;4.40
67758;BMP180;54562;47.620;18.786;2023-01-16T02:14:37;97708.60;;;4.40
67758;BMP180;54562;47.620;18.786;2023-01-16T02:17:48;97713.00;;;4.40
67758;BMP180;54562;47.620;18.786;2023-01-16T02:21:34;97709.60;;;4.40
67758;BMP180;54562;47.620;18.786;2023-01-16T02:25:25;97704.80;;;4.40
67758;BMP180;54562;47.620;18.786;2023-01-16T02:29:19;97689.40;;;4.40
67758;BMP180;54562;47.620;18.786;2023-01-16T02:32:54;97676.60;;;4.40
67758;BMP180;54562;47.620;18.786;2023-01-16T02:36:12;97674.60;;;4.40
67758;BMP180;54562;47.620;18.786;2023-01-16T02:39:35;97664.80;;;4.36
67758;BMP180;54562;47.620;18.786;2023-01-16T02:42:53;97648.20;;;4.30
67758;BMP180;54562;47.620;18.786;2023-01-16T02:46:12;97636.40;;;4.30
67758;BMP180;54562;47.620;18.786;2023-01-16T02:49:31;97628.60;;;4.20
67758;BMP180;54562;47.620;18.786;2023-01-16T02:52:51;97640.20;;;4.18
67758;BMP180;54562;47.620;18.786;2023-01-16T02:56:05;97643.40;;;4.12
67758;BMP180;54562;47.620;18.786;2023-01-16T02:59:18;97639.60;;;4.10
67758;BMP180;54562;47.620;18.786;2023-01-16T03:02:26;97638.20;;;4.10
67758;BMP180;54562;47.620;18.786;2023-01-16T03:05:46;97626.20;;;4.10
67758;BMP180;54562;47.620;18.786;2023-01-16T03:09:10;97617.80;;;4.10
67758;BMP180;54562;47.620;18.786;2023-01-16T03:12:37;97614.20;;;4.10
67758;BMP180;54562;47.620;18.786;2023-01-16T03:16:00;97608.00;;;4.10
67758;BMP180;54562;47.620;18.786;2023-01-16T03:19:23;97603.80;;;4.10
67758;BMP180;54562;47.620;18.786;2023-01-16T03:22:39;97592.20;;;4.08
67758;BMP180;54562;47.620;18.786;2023-01-16T03:25:54;97583.40;;;4.04
67758;BMP180;54562;47.620;18.786;2023-01-16T03:29:14;97580.60;;;4.02
67758;BMP180;54562;47.620;18.786;2023-01-16T03:32:32;97571.00;;;4.08
67758;BMP180;54562;47.620;18.786;2023-01-16T03:35:48;97566.40;;;4.10
67758;BMP180;54562;47.620;18.786;2023-01-16T03:38:59;97566.20;;;4.10
67758;BMP180;54562;47.620;18.786;2023-01-16T03:42:15;97560.20;;;4.10
67758;BMP180;54562;47.620;18.786;2023-01-16T03:45:31;97566.20;;;4.10
67758;BMP180;54562;47.620;18.786;2023-01-16T03:48:47;97562.20;;;4.10
67758;BMP180;54562;47.620;18.786;2023-01-16T03:52:00;97562.60;;;4.10
67758;BMP180;54562;47.620;18.786;2023-01-16T03:55:19;97560.40;;;4.10
67758;BMP180;54562;47.620;18.786;2023-01-16T03:58:31;97559.20;;;4.10
67758;BMP180;54562;47.620;18.786;2023-01-16T04:01:49;97550.80;;;4.10
67758;BMP180;54562;47.620;18.786;2023-01-16T04:05:07;97544.40;;;4.10
67758;BMP180;54562;47.620;18.786;2023-01-16T04:08:21;97541.20;;;4.10
67758;BMP180;54562;47.620;18.786;2023-01-16T04:11:31;97534.00;;;4.10
67758;BMP180;54562;47.620;18.786;2023-01-16T04:14:41;97533.60;;;4.10
67758;BMP180;54562;47.620;18.786;2023-01-16T04:17:50;97530.40;;;4.10
67758;BMP180;54562;47.620;18.786;2023-01-16T04:20:59;97524.40;;;4.10
67758;BMP180;54562;47.620;18.786;2023-01-16T04:27:17;97517.00;;;4.10
67758;BMP180;54562;47.620;18.786;2023-01-16T04:30:26;97517.00;;;4.10
67758;BMP180;54562;47.620;18.786;2023-01-16T04:33:36;97514.40;;;4.00
67758;BMP180;54562;47.620;18.786;2023-01-16T04:36:42;97512.40;;;4.00
67758;BMP180;54562;47.620;18.786;2023-01-16T04:39:51;97517.40;;;4.00
67758;BMP180;54562;47.620;18.786;2023-01-16T04:42:59;97514.40;;;4.00
67758;BMP180;54562;47.620;18.786;2023-01-16T04:46:08;97508.00;;;4.00
67758;BMP180;54562;47.620;18.786;2023-01-16T04:49:18;97497.80;;;3.90
67758;BMP180;54562;47.620;18.786;2023-01-16T04:52:27;97491.40;;;3.94
67758;BMP180;54562;47.620;18.786;2023-01-16T04:55:35;97489.80;;;3.98
67758;BMP180;54562;47.620;18.786;2023-01-16T04:58:44;97487.00;;;4.00
67758;BMP180;54562;47.620;18.786;2023-01-16T05:01:52;97479.20;;;4.00
67758;BMP180;54562;47.620;18.786;2023-01-16T05:05:00;97468.20;;;4.00
67758;BMP180;54562;47.620;18.786;2023-01-16T05:08:09;97455.20;;;3.94
67758;BMP180;54562;47.620;18.786;2023-01-16T05:11:23;97453.40;;;3.90
67758;BMP180;54562;47.620;18.786;2023-01-16T05:14:31;97458.60;;;3.90
67758;BMP180;54562;47.620;18.786;2023-01-16T05:17:40;97460.00;;;3.90
67758;BMP180;54562;47.620;18.786;2023-01-16T05:20:49;97459.60;;;3.90
67758;BMP180;54562;47.620;18.786;2023-01-16T05:23:58;97458.80;;;3.90
67758;BMP180;54562;47.620;18.786;2023-01-16T05:27:08;97448.00;;;3.90
67758;BMP180;54562;47.620;18.786;2023-01-16T05:30:18;97440.00;;;3.90
67758;BMP180;54562;47.620;18.786;2023-01-16T05:33:26;97442.80;;;3.90
67758;BMP180;54562;47.620;18.786;2023-01-16T05:36:36;97446.00;;;3.88
67758;BMP180;54562;47.620;18.786;2023-01-16T05:39:44;97449.80;;;3.90
67758;BMP180;54562;47.620;18.786;2023-01-16T05:42:53;97439.60;;;3.90
67758;BMP180;54562;47.620;18.786;2023-01-16T05:46:01;97439.00;;;3.90
67758;BMP180;54562;47.620;18.786;2023-01-16T05:49:10;97445.00;;;3.90
67758;BMP180;54562;47.620;18.786;2023-01-16T05:52:18;97447.00;;;3.90
67758;BMP180;54562;47.620;18.786;2023-01-16T05:55:27;97450.80;;;3.90
67758;BMP180;54562;47.620;18.786;2023-01-16T05:58:35;97451.80;;;3.80
67758;BMP180;54562;47.620;18.786;2023-01-16T06:01:43;97459.60;;;3.80
67758;BMP180;54562;47.620;18.786;2023-01-16T06:04:52;97464.40;;;3.80
67758;BMP180;54562;47.620;18.786;2023-01-16T06:08:01;97463.20;;;3.80
67758;BMP180;54562;47.620;18.786;2023-01-16T06:11:10;97458.60;;;3.80
67758;BMP180;54562;47.620;18.786;2023-01-16T06:14:18;97454.80;;;3.80
67758;BMP180;54562;47.620;18.786;2023-01-16T06:17:26;97446.60;;;3.70
67758;BMP180;54562;47.620;18.786;2023-01-16T06:20:34;97436.60;;;3.70
67758;BMP180;54562;47.620;18.786;2023-01-16T06:23:43;97426.60;;;3.70
67758;BMP180;54562;47.620;18.786;2023-01-16T06:26:50;97427.00;;;3.62
67758;BMP180;54562;47.620;18.786;2023-01-16T06:29:59;97420.60;;;3.70
67758;BMP180;54562;47.620;18.786;2023-01-16T06:33:07;97417.20;;;3.68
67758;BMP180;54562;47.620;18.786;2023-01-16T06:36:17;97409.80;;;3.62
67758;BMP180;54562;47.620;18.786;2023-01-16T06:39:26;97411.60;;;3.60
67758;BMP180;54562;47.620;18.786;2023-01-16T06:42:34;97413.00;;;3.62
67758;BMP180;54562;47.620;18.786;2023-01-16T06:45:43;97410.20;;;3.64
67758;BMP180;54562;47.620;18.786;2023-01-16T06:48:52;97412.40;;;3.70
67758;BMP180;54562;47.620;18.786;2023-01-16T06:52:00;97408.60;;;3.70
67758;BMP180;54562;47.620;18.786;2023-01-16T06:58:14;97420.40;;;3.64
67758;BMP180;54562;47.620;18.786;2023-01-16T07:01:24;97411.80;;;3.60
67758;BMP180;54562;47.620;18.786;2023-01-16T07:04:33;97407.40;;;3.62
67758;BMP180;54562;47.620;18.786;2023-01-16T07:07:42;97406.20;;;3.60
67758;BMP180;54562;47.620;18.786;2023-01-16T07:10:50;97405.00;;;3.60
67758;BMP180;54562;47.620;18.786;2023-01-16T07:13:58;97402.00;;;3.60
67758;BMP180;54562;47.620;18.786;2023-01-16T07:17:20;97397.40;;;3.60
67758;BMP180;54562;47.620;18.786;2023-01-16T07:20:57;97406.40;;;3.60
67758;BMP180;54562;47.620;18.786;2023-01-16T07:24:29;97407.40;;;3.60
67758;BMP180;54562;47.620;18.786;2023-01-16T07:27:40;97409.80;;;3.70
67758;BMP180;54562;47.620;18.786;2023-01-16T07:30:50;97410.80;;;3.70
67758;BMP180;54562;47.620;18.786;2023-01-16T07:33:58;97408.80;;;3.70
67758;BMP180;54562;47.620;18.786;2023-01-16T07:37:06;97409.00;;;3.70
67758;BMP180;54562;47.620;18.786;2023-01-16T07:40:17;97402.60;;;3.80
67758;BMP180;54562;47.620;18.786;2023-01-16T07:43:25;97400.00;;;3.80
67758;BMP180;54562;47.620;18.786;2023-01-16T07:46:34;97393.60;;;3.80
67758;BMP180;54562;47.620;18.786;2023-01-16T07:49:42;97387.40;;;3.80
67758;BMP180;54562;47.620;18.786;2023-01-16T07:52:50;97377.40;;;3.80
67758;BMP180;54562;47.620;18.786;2023-01-16T07:56:01;97366.40;;;3.80
67758;BMP180;54562;47.620;18.786;2023-01-16T07:59:09;97358.20;;;3.80
67758;BMP180;54562;47.620;18.786;2023-01-16T08:02:17;97330.60;;;3.80
67758;BMP180;54562;47.620;18.786;2023-01-16T08:05:26;97319.60;;;3.80
67758;BMP180;54562;47.620;18.786;2023-01-16T08:08:35;97315.40;;;3.82
67758;BMP180;54562;47.620;18.786;2023-01-16T08:11:43;97306.20;;;3.80
67758;BMP180;54562;47.620;18.786;2023-01-16T08:14:54;97299.20;;;3.80
67758;BMP180;54562;47.620;18.786;2023-01-16T08:18:03;97296.20;;;3.80
67758;BMP180;54562;47.620;18.786;2023-01-16T08:21:11;97286.60;;;3.80
67758;BMP180;54562;47.620;18.786;2023-01-16T08:24:19;97284.60;;;3.76
67758;BMP180;54562;47.620;18.786;2023-01-16T08:27:27;97277.60;;;3.74
67758;BMP180;54562;47.620;18.786;2023-01-16T08:30:36;97275.40;;;3.70
67758;BMP180;54562;47.620;18.786;2023-01-16T08:33:45;97267.40;;;3.70
67758;BMP180;54562;47.620;18.786;2023-01-16T08:36:53;97257.40;;;3.70
67758;BMP180;54562;47.620;18.786;2023-01-16T08:40:02;97253.20;;;3.70
67758;BMP180;54562;47.620;18.786;2023-01-16T08:43:12;97239.20;;;3.70
67758;BMP180;54562;47.620;18.786;2023-01-16T08:46:38;97236.80;;;3.70
67758;BMP180;54562;47.620;18.786;2023-01-16T08:50:11;97225.80;;;3.72
67758;BMP180;54562;47.620;18.786;2023-01-16T08:53:39;97217.60;;;3.80
67758;BMP180;54562;47.620;18.786;2023-01-16T08:56:47;97208.20;;;3.80
67758;BMP180;54562;47.620;18.786;2023-01-16T08:59:56;97206.60;;;3.80
67758;BMP180;54562;47.620;18.786;2023-01-16T09:03:04;97198.40;;;3.80
67758;BMP180;54562;47.620;18.786;2023-01-16T09:06:13;97189.40;;;3.80
67758;BMP180;54562;47.620;18.786;2023-01-16T09:09:21;97176.40;;;3.80
67758;BMP180;54562;47.620;18.786;2023-01-16T09:12:34;97169.80;;;3.80
67758;BMP180;54562;47.620;18.786;2023-01-16T09:16:05;97159.60;;;3.80
67758;BMP180;54562;47.620;18.786;2023-01-16T09:19:13;97156.60;;;3.80
67758;BMP180;54562;47.620;18.786;2023-01-16T09:22:22;97152.60;;;3.80
67758;BMP180;54562;47.620;18.786;2023-01-16T09:25:32;97133.40;;;3.80
67758;BMP180;54562;47.620;18.786;2023-01-16T09:28:39;97131.40;;;3.80
67758;BMP180;54562;47.620;18.786;2023-01-16T09:31:47;97121.60;;;3.80
67758;BMP180;54562;47.620;18.786;2023-01-16T09:34:55;97121.00;;;3.82
67758;BMP180;54562;47.620;18.786;2023-01-16T09:38:03;97116.00;;;3.80
67758;BMP180;54562;47.620;18.786;2023-01-16T09:41:18;97109.40;;;3.80
67758;BMP180;54562;47.620;18.786;2023-01-16T09:44:40;97103.00;;;3.70
67758;BMP180;54562;47.620;18.786;2023-01-16T09:47:54;97097.20;;;3.70
67758;BMP180;54562;47.620;18.786;2023-01-16T09:51:07;97086.40;;;3.70
67758;BMP180;54562;47.620;18.786;2023-01-16T09:54:23;97075.20;;;3.68
67758;BMP180;54562;47.620;18.786;2023-01-16T09:57:53;97062.20;;;3.70
67758;BMP180;54562;47.620;18.786;2023-01-16T10:01:29;97058.20;;;3.70
67758;BMP180;54562;47.620;18.786;2023-01-16T10:04:37;97049.60;;;3.70
67758;BMP180;54562;47.620;18.786;2023-01-16T10:07:56;97044.60;;;3.70
67758;BMP180;54562;47.620;18.786;2023-01-16T10:11:17;97030.20;;;3.70
67758;BMP180;54562;47.620;18.786;2023-01-16T10:14:43;97020.60;;;3.70
67758;BMP180;54562;47.620;18.786;2023-01-16T10:18:16;97015.40;;;3.70
67758;BMP180;54562;47.620;18.786;2023-01-16T10:22:01;97007.40;;;3.70
67758;BMP180;54562;47.620;18.786;2023-01-16T10:25:24;96999.80;;;3.70
67758;BMP180;54562;47.620;18.786;2023-01-16T10:28:52;96990.60;;;3.70
67758;BMP180;54562;47.620;18.786;2023-01-16T10:32:10;96983.80;;;3.70
67758;BMP180;54562;47.620;18.786;2023-01-16T10:35:25;96977.80;;;3.70
67758;BMP180;54562;47.620;18.786;2023-01-16T10:38:41;96965.00;;;3.66
67758;BMP180;54562;47.620;18.786;2023-01-16T10:41:57;96966.20;;;3.68
67758;BMP180;54562;47.620;18.786;2023-01-16T10:45:30;96960.40;;;3.64
67758;BMP180;54562;47.620;18.786;2023-01-16T10:48:56;96953.40;;;3.66
67758;BMP180;54562;47.620;18.786;2023-01-16T10:52:22;96936.80;;;3.62
67758;BMP180;54562;47.620;18.786;2023-01-16T10:55:34;96925.20;;;3.62
67758;BMP180;54562;47.620;18.786;2023-01-16T10:58:43;96914.00;;;3.62
67758;BMP180;54562;47.620;18.786;2023-01-16T11:01:53;96910.20;;;3.60
67758;BMP180;54562;47.620;18.786;2023-01-16T11:05:23;96911.40;;;3.60
67758;BMP180;54562;47.620;18.786;2023-01-16T11:08:32;96898.80;;;3.60
67758;BMP180;54562;47.620;18.786;2023-01-16T11:11:40;96888.40;;;3.60
67758;BMP180;54562;47.620;18.786;2023-01-16T11:15:16;96877.40;;;3.60
67758;BMP180;54562;47.620;18.786;2023-01-16T11:18:42;96868.80;;;3.66
67758;BMP180;54562;47.620;18.786;2023-01-16T11:21:55;96852.00;;;3.60
67758;BMP180;54562;47.620;18.786;2023-01-16T11:25:09;96851.20;;;3.60
67758;BMP180;54562;47.620;18.786;2023-01-16T11:28:29;96843.40;;;3.68
67758;BMP180;54562;47.620;18.786;2023-01-16T11:31:39;96839.40;;;3.70
67758;BMP180;54562;47.620;18.786;2023-01-16T11:34:52;96834.00;;;3.68
67758;BMP180;54562;47.620;18.786;2023-01-16T11:38:02;96827.60;;;3.70
67758;BMP180;54562;47.620;18.786;2023-01-16T11:41:13;96822.00;;;3.70
67758;BMP180;54562;47.620;18.786;2023-01-16T11:44:29;96818.20;;;3.70
67758;BMP180;54562;47.620;18.786;2023-01-16T11:47:58;96807.40;;;3.70
67758;BMP180;54562;47.620;18.786;2023-01-16T11:51:13;96802.40;;;3.70
67758;BMP180;54562;47.620;18.786;2023-01-16T11:54:28;96793.20;;;3.70
67758;BMP180;54562;47.620;18.786;2023-01-16T11:57:48;96788.20;;;3.70
67758;BMP180;54562;47.620;18.786;2023-01-16T12:01:08;96775.40;;;3.70
67758;BMP180;54562;47.620;18.786;2023-01-16T12:04:23;96771.00;;;3.70
67758;BMP180;54562;47.620;18.786;2023-01-16T12:07:43;96765.20;;;3.70
67758;BMP180;54562;47.620;18.786;2023-01-16T12:11:01;96751.40;;;3.70
67758;BMP180;54562;47.620;18.786;2023-01-16T12:14:17;96744.80;;;3.70
67758;BMP180;54562;47.620;18.786;2023-01-16T12:17:52;96732.00;;;3.70
67758;BMP180;54562;47.620;18.786;2023-01-16T12:21:07;96725.80;;;3.70
67758;BMP180;54562;47.620;18.786;2023-01-16T12:24:33;96717.00;;;3.70
67758;BMP180;54562;47.620;18.786;2023-01-16T12:27:58;96704.60;;;3.70
67758;BMP180;54562;47.620;18.786;2023-01-16T12:31:38;96698.00;;;3.70
67758;BMP180;54562;47.620;18.786;2023-01-16T12:35:08;96685.80;;;3.70
67758;BMP180;54562;47.620;18.786;2023-01-16T12:38:27;96679.60;;;3.70
67758;BMP180;54562;47.620;18.786;2023-01-16T12:41:48;96691.40;;;3.70
67758;BMP180;54562;47.620;18.786;2023-01-16T12:45:31;96688.00;;;3.70
67758;BMP180;54562;47.620;18.786;2023-01-16T12:48:57;96684.00;;;3.70
67758;BMP180;54562;47.620;18.786;2023-01-16T12:52:36;96676.00;;;3.60
67758;BMP180;54562;47.620;18.786;2023-01-16T12:56:00;96675.20;;;3.60
67758;BMP180;54562;47.620;18.786;2023-01-16T12:59:20;96678.00;;;3.60
67758;BMP180;54562;47.620;18.786;2023-01-16T13:02:39;96676.60;;;3.60
67758;BMP180;54562;47.620;18.786;2023-01-16T13:05:50;96674.00;;;3.60
67758;BMP180;54562;47.620;18.786;2023-01-16T13:09:03;96668.80;;;3.60
67758;BMP180;54562;47.620;18.786;2023-01-16T13:12:23;96658.40;;;3.60
67758;BMP180;54562;47.620;18.786;2023-01-16T13:15:57;96651.60;;;3.60
67758;BMP180;54562;47.620;18.786;2023-01-16T13:19:14;96647.80;;;3.60
67758;BMP180;54562;47.620;18.786;2023-01-16T13:22:28;96626.60;;;3.60
67758;BMP180;54562;47.620;18.786;2023-01-16T13:25:41;96615.00;;;3.60
67758;BMP180;54562;47.620;18.786;2023-01-16T13:28:59;96613.20;;;3.60
67758;BMP180;54562;47.620;18.786;2023-01-16T13:32:31;96607.80;;;3.60
67758;BMP180;54562;47.620;18.786;2023-01-16T13:35:49;96597.20;;;3.60
67758;BMP180;54562;47.620;18.786;2023-01-16T13:39:17;96595.20;;;3.60
67758;BMP180;54562;47.620;18.786;2023-01-16T13:42:31;96589.80;;;3.60
67758;BMP180;54562;47.620;18.786;2023-01-16T13:45:43;96596.80;;;3.60
67758;BMP180;54562;47.620;18.786;2023-01-16T13:49:06;96598.00;;;3.60
67758;BMP180;54562;47.620;18.786;2023-01-16T13:52:22;96594.80;;;3.60
67758;BMP180;54562;47.620;18.786;2023-01-16T13:55:35;96588.00;;;3.60
67758;BMP180;54562;47.620;18.786;2023-01-16T13:58:53;96587.80;;;3.64
67758;BMP180;54562;47.620;18.786;2023-01-16T14:02:02;96586.80;;;3.64
67758;BMP180;54562;47.620;18.786;2023-01-16T14:05:46;96584.60;;;3.68
67758;BMP180;54562;47.620;18.786;2023-01-16T14:12:22;96568.80;;;3.70
67758;BMP180;54562;47.620;18.786;2023-01-16T14:15:58;96561.40;;;3.70
67758;BMP180;54562;47.620;18.786;2023-01-16T14:19:25;96557.60;;;3.64
67758;BMP180;54562;47.620;18.786;2023-01-16T14:22:45;96548.00;;;3.60
67758;BMP180;54562;47.620;18.786;2023-01-16T14:26:23;96541.20;;;3.62
67758;BMP180;54562;47.620;18.786;2023-01-16T14:29:36;96534.80;;;3.60
67758;BMP180;54562;47.620;18.786;2023-01-16T14:32:55;96541.00;;;3.62
67758;BMP180;54562;47.620;18.786;2023-01-16T14:36:09;96529.80;;;3.60
67758;BMP180;54562;47.620;18.786;2023-01-16T14:39:35;96528.80;;;3.60
67758;BMP180;54562;47.620;18.786;2023-01-16T14:42:51;96524.20;;;3.60
67758;BMP180;54562;47.620;18.786;2023-01-16T14:46:33;96525.60;;;3.50
67758;BMP180;54562;47.620;18.786;2023-01-16T14:50:14;96526.60;;;3.50
67758;BMP180;54562;47.620;18.786;2023-01-16T14:53:42;96510.60;;;3.50
67758;BMP180;54562;47.620;18.786;2023-01-16T14:57:16;96511.60;;;3.44
67758;BMP180;54562;47.620;18.786;2023-01-16T15:00:27;96507.40;;;3.40
67758;BMP180;54562;47.620;18.786;2023-01-16T15:03:38;96503.00;;;3.40
67758;BMP180;54562;47.620;18.786;2023-01-16T15:06:55;96501.00;;;3.40
67758;BMP180;54562;47.620;18.786;2023-01-16T15:10:11;96493.60;;;3.38
67758;BMP180;54562;47.620;18.786;2023-01-16T15:13:25;96491.40;;;3.30
67758;BMP180;54562;47.620;18.786;2023-01-16T15:16:34;96485.00;;;3.32
67758;BMP180;54562;47.620;18.786;2023-01-16T15:20:18;96473.80;;;3.30
67758;BMP180;54562;47.620;18.786;2023-01-16T15:23:46;96463.80;;;3.30
67758;BMP180;54562;47.620;18.786;2023-01-16T15:27:02;96457.20;;;3.30
67758;BMP180;54562;47.620;18.786;2023-01-16T15:30:17;96447.60;;;3.30
67758;BMP180;54562;47.620;18.786;2023-01-16T15:33:28;96449.00;;;3.30
67758;BMP180;54562;47.620;18.786;2023-01-16T15:36:55;96452.20;;;3.30
67758;BMP180;54562;47.620;18.786;2023-01-16T15:40:24;96456.20;;;3.30
67758;BMP180;54562;47.620;18.786;2023-01-16T15:43:33;96452.20;;;3.30
67758;BMP180;54562;47.620;18.786;2023-01-16T15:47:16;96441.80;;;3.30
67758;BMP180;54562;47.620;18.786;2023-01-16T15:50:39;96451.60;;;3.30
67758;BMP180;54562;47.620;18.786;2023-01-16T15:53:50;96446.80;;;3.30
67758;BMP180;54562;47.620;18.786;2023-01-16T15:57:03;96453.20;;;3.30
67758;BMP180;54562;47.620;18.786;2023-01-16T16:00:33;96450.40;;;3.30
67758;BMP180;54562;47.620;18.786;2023-01-16T16:03:46;96444.00;;;3.30
67758;BMP180;54562;47.620;18.786;2023-01-16T16:06:55;96435.40;;;3.38
67758;BMP180;54562;47.620;18.786;2023-01-16T16:10:11;96431.80;;;3.38
67758;BMP180;54562;47.620;18.786;2023-01-16T16:13:41;96430.80;;;3.40
67758;BMP180;54562;47.620;18.786;2023-01-16T16:17:16;96421.60;;;3.40
67758;BMP180;54562;47.620;18.786;2023-01-16T16:20:44;96424.60;;;3.40
67758;BMP180;54562;47.620;18.786;2023-01-16T16:24:02;96414.20;;;3.40
67758;BMP180;54562;47.620;18.786;2023-01-16T16:27:16;96413.80;;;3.40
67758;BMP180;54562;47.620;18.786;2023-01-16T16:30:27;96406.80;;;3.50
67758;BMP180;54562;47.620;18.786;2023-01-16T16:33:36;96410.40;;;3.50
67758;BMP180;54562;47.620;18.786;2023-01-16T16:36:47;96404.40;;;3.50
67758;BMP180;54562;47.620;18.786;2023-01-16T16:40:14;96397.40;;;3.50
67758;BMP180;54562;47.620;18.786;2023-01-16T16:43:47;96391.20;;;3.58
67758;BMP180;54562;47.620;18.786;2023-01-16T16:47:00;96397.00;;;3.60
67758;BMP180;54562;47.620;18.786;2023-01-16T16:50:33;96392.20;;;3.60
67758;BMP180;54562;47.620;18.786;2023-01-16T16:53:48;96390.60;;;3.60
67758;BMP180;54562;47.620;18.786;2023-01-16T16:57:00;96389.40;;;3.66
67758;BMP180;54562;47.620;18.786;2023-01-16T17:00:19;96381.80;;;3.70
67758;BMP180;54562;47.620;18.786;2023-01-16T17:03:29;96377.40;;;3.70
67758;BMP180;54562;47.620;18.786;2023-01-16T17:06:41;96369.40;;;3.70
67758;BMP180;54562;47.620;18.786;2023-01-16T17:09:49;96375.40;;;3.70
67758;BMP180;54562;47.620;18.786;2023-01-16T17:13:08;96372.80;;;3.70
67758;BMP180;54562;47.620;18.786;2023-01-16T17:16:45;96368.40;;;3.70
67758;BMP180;54562;47.620;18.786;2023-01-16T17:20:22;96362.40;;;3.66
67758;BMP180;54562;47.620;18.786;2023-01-16T17:23:57;96361.60;;;3.64
67758;BMP180;54562;47.620;18.786;2023-01-16T17:27:31;96359.80;;;3.68
67758;BMP180;54562;47.620;18.786;2023-01-16T17:30:52;96351.80;;;3.60
67758;BMP180;54562;47.620;18.786;2023-01-16T17:34:16;96371.00;;;3.60
67758;BMP180;54562;47.620;18.786;2023-01-16T17:37:44;96376.60;;;3.60
67758;BMP180;54562;47.620;18.786;2023-01-16T17:41:00;96383.00;;;3.60
67758;BMP180;54562;47.620;18.786;2023-01-16T17:44:29;96375.60;;;3.64
67758;BMP180;54562;47.620;18.786;2023-01-16T17:48:17;96361.40;;;3.70
67758;BMP180;54562;47.620;18.786;2023-01-16T17:51:52;96353.80;;;3.70
67758;BMP180;54562;47.620;18.786;2023-01-16T17:55:29;96346.20;;;3.70
67758;BMP180;54562;47.620;18.786;2023-01-16T17:59:19;96337.20;;;3.70
67758;BMP180;54562;47.620;18.786;2023-01-16T18:02:40;96343.20;;;3.70
67758;BMP180;54562;47.620;18.786;2023-01-16T18:06:00;96323.80;;;3.70
67758;BMP180;54562;47.620;18.786;2023-01-16T18:09:12;96329.00;;;3.74
67758;BMP180;54562;47.620;18.786;2023-01-16T18:12:26;96327.00;;;3.74
67758;BMP180;54562;47.620;18.786;2023-01-16T18:15:53;96320.00;;;3.80
67758;BMP180;54562;47.620;18.786;2023-01-16T18:19:21;96312.00;;;3.80
67758;BMP180;54562;47.620;18.786;2023-01-16T18:22:31;96314.60;;;3.80
67758;BMP180;54562;47.620;18.786;2023-01-16T18:25:48;96311.20;;;3.80
67758;BMP180;54562;47.620;18.786;2023-01-16T18:28:58;96307.00;;;3.80
67758;BMP180;54562;47.620;18.786;2023-01-16T18:32:12;96307.80;;;3.80
67758;BMP180;54562;47.620;18.786;2023-01-16T18:35:27;96301.00;;;3.80
67758;BMP180;54562;47.620;18.786;2023-01-16T18:38:36;96293.00;;;3.80
67758;BMP180;54562;47.620;18.786;2023-01-16T18:42:02;96297.60;;;3.80
67758;BMP180;54562;47.620;18.786;2023-01-16T18:45:29;96296.80;;;3.80
67758;BMP180;54562;47.620;18.786;2023-01-16T18:48:57;96307.20;;;3.80
67758;BMP180;54562;47.620;18.786;2023-01-16T18:52:22;96297.20;;;3.80
67758;BMP180;54562;47.620;18.786;2023-01-16T18:55:49;96279.20;;;3.80
67758;BMP180;54562;47.620;18.786;2023-01-16T18:59:19;96277.60;;;3.80
67758;BMP180;54562;47.620;18.786;2023-01-16T19:02:47;96279.80;;;3.80
67758;BMP180;54562;47.620;18.786;2023-01-16T19:05:58;96278.20;;;3.80